sensor_id;sensor_type;location;lat;lon;timestamp;P1;durP1;ratioP1;P2;durP2;ratioP2
61785;SDS011;47692;53.714;11.372;2023-05-10T00:01:32;4.03;;;2.75;;
61785;SDS011;47692;53.714;11.372;2023-05-10T00:03:58;7.38;;;3.05;;
61785;SDS011;47692;53.714;11.372;2023-05-10T00:06:23;5.70;;;2.88;;
61785;SDS011;47692;53.714;11.372;2023-05-10T00:08:48;5.30;;;3.20;;
61785;SDS011;47692;53.714;11.372;2023-05-10T00:11:13;4.65;;;3.20;;
61785;SDS011;47692;53.714;11.372;2023-05-10T00:13:39;9.05;;;3.10;;
61785;SDS011;47692;53.714;11.372;2023-05-10T00:16:05;7.00;;;3.45;;
61785;SDS011;47692;53.714;11.372;2023-05-10T00:18:30;5.32;;;2.92;;
61785;SDS011;47692;53.714;11.372;2023-05-10T00:20:55;4.53;;;3.15;;
61785;SDS011;47692;53.714;11.372;2023-05-10T00:23:20;5.90;;;3.08;;
61785;SDS011;47692;53.714;11.372;2023-05-10T00:25:46;5.18;;;3.35;;
61785;SDS011;47692;53.714;11.372;2023-05-10T00:28:11;6.53;;;3.05;;
61785;SDS011;47692;53.714;11.372;2023-05-10T00:30:36;4.13;;;2.63;;
61785;SDS011;47692;53.714;11.372;2023-05-10T00:33:02;4.40;;;3.10;;
61785;SDS011;47692;53.714;11.372;2023-05-10T00:35:27;7.38;;;3.20;;
61785;SDS011;47692;53.714;11.372;2023-05-10T00:37:53;6.50;;;2.90;;
61785;SDS011;47692;53.714;11.372;2023-05-10T00:40:18;4.88;;;2.92;;
61785;SDS011;47692;53.714;11.372;2023-05-10T00:42:44;5.30;;;3.40;;
61785;SDS011;47692;53.714;11.372;2023-05-10T00:45:09;6.38;;;3.10;;
61785;SDS011;47692;53.714;11.372;2023-05-10T00:47:34;5.03;;;3.30;;
61785;SDS011;47692;53.714;11.372;2023-05-10T00:50:00;8.00;;;3.05;;
61785;SDS011;47692;53.714;11.372;2023-05-10T00:52:26;5.20;;;3.40;;
61785;SDS011;47692;53.714;11.372;2023-05-10T00:54:53;6.75;;;2.95;;
61785;SDS011;47692;53.714;11.372;2023-05-10T00:57:19;7.15;;;3.85;;
61785;SDS011;47692;53.714;11.372;2023-05-10T00:59:45;7.55;;;2.95;;
61785;SDS011;47692;53.714;11.372;2023-05-10T01:02:11;4.95;;;3.20;;
61785;SDS011;47692;53.714;11.372;2023-05-10T01:04:38;6.00;;;3.42;;
61785;SDS011;47692;53.714;11.372;2023-05-10T01:07:04;7.43;;;3.90;;
61785;SDS011;47692;53.714;11.372;2023-05-10T01:09:30;4.68;;;2.92;;
61785;SDS011;47692;53.714;11.372;2023-05-10T01:11:56;7.00;;;3.60;;
61785;SDS011;47692;53.714;11.372;2023-05-10T01:14:21;5.32;;;3.50;;
61785;SDS011;47692;53.714;11.372;2023-05-10T01:16:47;4.63;;;3.25;;
61785;SDS011;47692;53.714;11.372;2023-05-10T01:19:18;6.13;;;3.40;;
61785;SDS011;47692;53.714;11.372;2023-05-10T01:35:32;5.18;;;3.35;;
61785;SDS011;47692;53.714;11.372;2023-05-10T01:38:18;6.28;;;4.15;;
61785;SDS011;47692;53.714;11.372;2023-05-10T01:41:12;6.60;;;3.50;;
61785;SDS011;47692;53.714;11.372;2023-05-10T01:43:43;8.18;;;3.58;;
61785;SDS011;47692;53.714;11.372;2023-05-10T01:46:28;6.40;;;3.67;;
61785;SDS011;47692;53.714;11.372;2023-05-10T01:49:02;5.32;;;3.67;;
61785;SDS011;47692;53.714;11.372;2023-05-10T01:51:36;5.70;;;3.60;;
61785;SDS011;47692;53.714;11.372;2023-05-10T01:54:09;4.57;;;3.47;;
61785;SDS011;47692;53.714;11.372;2023-05-10T01:56:38;5.75;;;3.28;;
61785;SDS011;47692;53.714;11.372;2023-05-10T01:59:07;8.52;;;3.75;;
61785;SDS011;47692;53.714;11.372;2023-05-10T02:01:38;5.68;;;4.13;;
61785;SDS011;47692;53.714;11.372;2023-05-10T02:04:05;5.88;;;3.10;;
61785;SDS011;47692;53.714;11.372;2023-05-10T02:06:33;6.70;;;3.88;;
61785;SDS011;47692;53.714;11.372;2023-05-10T02:09:01;5.82;;;3.60;;
61785;SDS011;47692;53.714;11.372;2023-05-10T02:11:28;5.45;;;3.70;;
61785;SDS011;47692;53.714;11.372;2023-05-10T02:13:54;5.03;;;3.60;;
61785;SDS011;47692;53.714;11.372;2023-05-10T02:16:21;6.85;;;3.85;;
61785;SDS011;47692;53.714;11.372;2023-05-10T02:18:50;6.93;;;3.80;;
61785;SDS011;47692;53.714;11.372;2023-05-10T02:21:17;8.93;;;4.25;;
61785;SDS011;47692;53.714;11.372;2023-05-10T02:23:44;6.00;;;4.25;;
61785;SDS011;47692;53.714;11.372;2023-05-10T02:26:10;4.82;;;3.60;;
61785;SDS011;47692;53.714;11.372;2023-05-10T02:28:38;9.10;;;3.38;;
61785;SDS011;47692;53.714;11.372;2023-05-10T02:31:05;5.50;;;3.80;;
61785;SDS011;47692;53.714;11.372;2023-05-10T02:33:31;5.45;;;3.90;;
61785;SDS011;47692;53.714;11.372;2023-05-10T02:35:58;6.57;;;4.07;;
61785;SDS011;47692;53.714;11.372;2023-05-10T02:38:24;6.63;;;3.95;;
61785;SDS011;47692;53.714;11.372;2023-05-10T02:40:50;5.03;;;3.92;;
61785;SDS011;47692;53.714;11.372;2023-05-10T02:43:17;5.72;;;4.00;;
61785;SDS011;47692;53.714;11.372;2023-05-10T02:45:43;5.30;;;3.78;;
61785;SDS011;47692;53.714;11.372;2023-05-10T02:48:12;6.53;;;4.07;;
61785;SDS011;47692;53.714;11.372;2023-05-10T02:50:38;5.82;;;4.22;;
61785;SDS011;47692;53.714;11.372;2023-05-10T02:53:15;5.90;;;4.13;;
61785;SDS011;47692;53.714;11.372;2023-05-10T02:55:44;6.90;;;3.97;;
61785;SDS011;47692;53.714;11.372;2023-05-10T02:58:14;8.25;;;4.57;;
61785;SDS011;47692;53.714;11.372;2023-05-10T03:00:39;7.35;;;4.78;;
61785;SDS011;47692;53.714;11.372;2023-05-10T03:03:04;7.07;;;4.07;;
61785;SDS011;47692;53.714;11.372;2023-05-10T03:05:30;6.28;;;4.18;;
61785;SDS011;47692;53.714;11.372;2023-05-10T03:07:55;7.03;;;4.18;;
61785;SDS011;47692;53.714;11.372;2023-05-10T03:10:22;10.90;;;4.97;;
61785;SDS011;47692;53.714;11.372;2023-05-10T03:13:29;8.25;;;4.68;;
61785;SDS011;47692;53.714;11.372;2023-05-10T03:16:08;7.15;;;4.30;;
61785;SDS011;47692;53.714;11.372;2023-05-10T03:21:31;6.20;;;4.17;;
61785;SDS011;47692;53.714;11.372;2023-05-10T03:24:15;9.27;;;4.57;;
61785;SDS011;47692;53.714;11.372;2023-05-10T03:26:43;8.23;;;4.75;;
61785;SDS011;47692;53.714;11.372;2023-05-10T03:29:11;6.47;;;4.60;;
61785;SDS011;47692;53.714;11.372;2023-05-10T03:31:38;9.32;;;4.40;;
61785;SDS011;47692;53.714;11.372;2023-05-10T03:34:03;7.43;;;4.53;;
61785;SDS011;47692;53.714;11.372;2023-05-10T03:36:29;7.38;;;4.97;;
61785;SDS011;47692;53.714;11.372;2023-05-10T03:38:54;5.70;;;4.55;;
61785;SDS011;47692;53.714;11.372;2023-05-10T03:41:19;6.00;;;4.22;;
61785;SDS011;47692;53.714;11.372;2023-05-10T03:43:45;7.78;;;5.30;;
61785;SDS011;47692;53.714;11.372;2023-05-10T03:46:10;11.88;;;4.88;;
61785;SDS011;47692;53.714;11.372;2023-05-10T03:48:36;7.97;;;5.32;;
61785;SDS011;47692;53.714;11.372;2023-05-10T03:51:01;6.25;;;4.45;;
61785;SDS011;47692;53.714;11.372;2023-05-10T03:53:27;6.38;;;4.30;;
61785;SDS011;47692;53.714;11.372;2023-05-10T03:55:52;6.50;;;4.07;;
61785;SDS011;47692;53.714;11.372;2023-05-10T03:58:17;9.50;;;5.25;;
61785;SDS011;47692;53.714;11.372;2023-05-10T04:00:43;9.20;;;4.70;;
61785;SDS011;47692;53.714;11.372;2023-05-10T04:03:10;9.00;;;4.85;;
61785;SDS011;47692;53.714;11.372;2023-05-10T04:05:36;6.85;;;4.43;;
61785;SDS011;47692;53.714;11.372;2023-05-10T04:08:01;5.72;;;4.07;;
61785;SDS011;47692;53.714;11.372;2023-05-10T04:10:27;8.57;;;4.57;;
61785;SDS011;47692;53.714;11.372;2023-05-10T04:12:53;6.47;;;4.07;;
61785;SDS011;47692;53.714;11.372;2023-05-10T04:15:18;6.70;;;4.63;;
61785;SDS011;47692;53.714;11.372;2023-05-10T04:17:44;7.97;;;4.38;;
61785;SDS011;47692;53.714;11.372;2023-05-10T04:20:09;8.35;;;5.40;;
61785;SDS011;47692;53.714;11.372;2023-05-10T04:22:35;8.43;;;4.78;;
61785;SDS011;47692;53.714;11.372;2023-05-10T04:25:00;8.30;;;4.80;;
61785;SDS011;47692;53.714;11.372;2023-05-10T04:27:26;7.32;;;4.30;;
61785;SDS011;47692;53.714;11.372;2023-05-10T04:29:52;6.40;;;4.50;;
61785;SDS011;47692;53.714;11.372;2023-05-10T04:32:17;7.85;;;5.05;;
61785;SDS011;47692;53.714;11.372;2023-05-10T04:34:43;6.00;;;3.95;;
61785;SDS011;47692;53.714;11.372;2023-05-10T04:37:08;7.43;;;4.60;;
61785;SDS011;47692;53.714;11.372;2023-05-10T04:39:34;7.47;;;4.40;;
61785;SDS011;47692;53.714;11.372;2023-05-10T04:42:00;6.18;;;4.57;;
61785;SDS011;47692;53.714;11.372;2023-05-10T04:44:27;7.97;;;5.40;;
61785;SDS011;47692;53.714;11.372;2023-05-10T04:46:53;10.75;;;5.05;;
61785;SDS011;47692;53.714;11.372;2023-05-10T04:49:18;7.57;;;4.95;;
61785;SDS011;47692;53.714;11.372;2023-05-10T04:51:44;7.65;;;4.68;;
61785;SDS011;47692;53.714;11.372;2023-05-10T04:54:09;6.25;;;4.55;;
61785;SDS011;47692;53.714;11.372;2023-05-10T04:56:35;7.05;;;4.82;;
61785;SDS011;47692;53.714;11.372;2023-05-10T04:59:00;6.53;;;4.60;;
61785;SDS011;47692;53.714;11.372;2023-05-10T05:01:26;10.07;;;4.97;;
61785;SDS011;47692;53.714;11.372;2023-05-10T05:03:51;7.57;;;4.30;;
61785;SDS011;47692;53.714;11.372;2023-05-10T05:06:17;6.50;;;4.20;;
61785;SDS011;47692;53.714;11.372;2023-05-10T05:08:43;9.05;;;4.90;;
61785;SDS011;47692;53.714;11.372;2023-05-10T05:11:08;7.72;;;5.15;;
61785;SDS011;47692;53.714;11.372;2023-05-10T05:13:34;8.88;;;4.82;;
61785;SDS011;47692;53.714;11.372;2023-05-10T05:16:00;11.02;;;4.90;;
61785;SDS011;47692;53.714;11.372;2023-05-10T05:18:26;6.00;;;3.88;;
61785;SDS011;47692;53.714;11.372;2023-05-10T05:20:51;7.10;;;4.82;;
61785;SDS011;47692;53.714;11.372;2023-05-10T05:23:17;9.60;;;4.10;;
61785;SDS011;47692;53.714;11.372;2023-05-10T05:25:43;7.97;;;4.60;;
61785;SDS011;47692;53.714;11.372;2023-05-10T05:28:08;11.20;;;4.63;;
61785;SDS011;47692;53.714;11.372;2023-05-10T05:30:34;7.97;;;4.68;;
61785;SDS011;47692;53.714;11.372;2023-05-10T05:32:59;9.13;;;4.60;;
61785;SDS011;47692;53.714;11.372;2023-05-10T05:35:24;6.55;;;4.40;;
61785;SDS011;47692;53.714;11.372;2023-05-10T05:37:50;6.15;;;3.95;;
61785;SDS011;47692;53.714;11.372;2023-05-10T05:40:15;7.32;;;4.65;;
61785;SDS011;47692;53.714;11.372;2023-05-10T05:42:40;7.53;;;4.38;;
61785;SDS011;47692;53.714;11.372;2023-05-10T05:45:06;8.50;;;4.65;;
61785;SDS011;47692;53.714;11.372;2023-05-10T05:47:33;7.85;;;4.65;;
61785;SDS011;47692;53.714;11.372;2023-05-10T05:49:59;7.05;;;4.20;;
61785;SDS011;47692;53.714;11.372;2023-05-10T05:52:24;6.63;;;4.20;;
61785;SDS011;47692;53.714;11.372;2023-05-10T05:54:49;7.55;;;4.38;;
61785;SDS011;47692;53.714;11.372;2023-05-10T05:57:15;7.75;;;4.50;;
61785;SDS011;47692;53.714;11.372;2023-05-10T05:59:40;7.30;;;4.38;;
61785;SDS011;47692;53.714;11.372;2023-05-10T06:02:09;6.32;;;4.63;;
61785;SDS011;47692;53.714;11.372;2023-05-10T06:04:34;6.32;;;4.53;;
61785;SDS011;47692;53.714;11.372;2023-05-10T06:07:00;8.45;;;4.25;;
61785;SDS011;47692;53.714;11.372;2023-05-10T06:09:25;7.22;;;4.20;;
61785;SDS011;47692;53.714;11.372;2023-05-10T06:11:50;5.57;;;4.22;;
61785;SDS011;47692;53.714;11.372;2023-05-10T06:14:16;6.30;;;4.38;;
61785;SDS011;47692;53.714;11.372;2023-05-10T06:16:41;7.38;;;4.80;;
61785;SDS011;47692;53.714;11.372;2023-05-10T06:19:06;7.25;;;3.83;;
61785;SDS011;47692;53.714;11.372;2023-05-10T06:21:32;6.78;;;3.80;;
61785;SDS011;47692;53.714;11.372;2023-05-10T06:23:57;6.88;;;4.13;;
61785;SDS011;47692;53.714;11.372;2023-05-10T06:26:22;6.32;;;4.10;;
61785;SDS011;47692;53.714;11.372;2023-05-10T06:28:48;5.50;;;3.90;;
61785;SDS011;47692;53.714;11.372;2023-05-10T06:31:13;7.15;;;4.22;;
61785;SDS011;47692;53.714;11.372;2023-05-10T06:33:38;6.22;;;4.10;;
61785;SDS011;47692;53.714;11.372;2023-05-10T06:36:04;5.65;;;4.25;;
61785;SDS011;47692;53.714;11.372;2023-05-10T06:38:29;6.25;;;4.57;;
61785;SDS011;47692;53.714;11.372;2023-05-10T06:40:55;7.30;;;4.15;;
61785;SDS011;47692;53.714;11.372;2023-05-10T06:43:20;9.15;;;4.18;;
61785;SDS011;47692;53.714;11.372;2023-05-10T06:45:45;5.65;;;3.67;;
61785;SDS011;47692;53.714;11.372;2023-05-10T06:48:12;6.35;;;4.03;;
61785;SDS011;47692;53.714;11.372;2023-05-10T06:50:37;9.48;;;4.47;;
61785;SDS011;47692;53.714;11.372;2023-05-10T06:53:03;7.60;;;4.35;;
61785;SDS011;47692;53.714;11.372;2023-05-10T06:55:28;6.18;;;4.20;;
61785;SDS011;47692;53.714;11.372;2023-05-10T06:57:54;6.88;;;4.40;;
61785;SDS011;47692;53.714;11.372;2023-05-10T07:00:19;7.93;;;4.00;;
61785;SDS011;47692;53.714;11.372;2023-05-10T07:02:45;8.32;;;4.35;;
61785;SDS011;47692;53.714;11.372;2023-05-10T07:05:11;6.35;;;3.83;;
61785;SDS011;47692;53.714;11.372;2023-05-10T07:07:37;6.88;;;4.30;;
61785;SDS011;47692;53.714;11.372;2023-05-10T07:10:02;5.03;;;3.47;;
61785;SDS011;47692;53.714;11.372;2023-05-10T07:12:28;5.97;;;3.42;;
61785;SDS011;47692;53.714;11.372;2023-05-10T07:14:53;5.85;;;3.58;;
61785;SDS011;47692;53.714;11.372;2023-05-10T07:17:19;5.60;;;3.80;;
61785;SDS011;47692;53.714;11.372;2023-05-10T07:19:44;5.82;;;4.10;;
61785;SDS011;47692;53.714;11.372;2023-05-10T07:22:09;4.95;;;3.53;;
61785;SDS011;47692;53.714;11.372;2023-05-10T07:24:35;5.72;;;3.53;;
61785;SDS011;47692;53.714;11.372;2023-05-10T07:27:00;5.05;;;3.40;;
61785;SDS011;47692;53.714;11.372;2023-05-10T07:29:26;5.22;;;3.55;;
61785;SDS011;47692;53.714;11.372;2023-05-10T07:31:51;5.70;;;3.40;;
61785;SDS011;47692;53.714;11.372;2023-05-10T07:34:16;6.68;;;3.60;;
61785;SDS011;47692;53.714;11.372;2023-05-10T07:36:42;5.93;;;3.45;;
61785;SDS011;47692;53.714;11.372;2023-05-10T07:39:07;5.50;;;3.58;;
61785;SDS011;47692;53.714;11.372;2023-05-10T07:41:33;7.72;;;3.60;;
61785;SDS011;47692;53.714;11.372;2023-05-10T07:43:58;4.68;;;3.55;;
61785;SDS011;47692;53.714;11.372;2023-05-10T07:46:23;4.25;;;3.40;;
61785;SDS011;47692;53.714;11.372;2023-05-10T07:48:49;4.65;;;3.42;;
61785;SDS011;47692;53.714;11.372;2023-05-10T07:51:14;5.55;;;3.22;;
61785;SDS011;47692;53.714;11.372;2023-05-10T07:53:39;7.20;;;3.85;;
61785;SDS011;47692;53.714;11.372;2023-05-10T07:56:24;4.88;;;3.25;;
61785;SDS011;47692;53.714;11.372;2023-05-10T07:58:54;5.18;;;3.53;;
61785;SDS011;47692;53.714;11.372;2023-05-10T08:01:26;6.35;;;3.35;;
61785;SDS011;47692;53.714;11.372;2023-05-10T08:03:55;8.73;;;3.67;;
61785;SDS011;47692;53.714;11.372;2023-05-10T08:06:20;5.43;;;3.75;;
61785;SDS011;47692;53.714;11.372;2023-05-10T08:08:46;6.95;;;3.42;;
61785;SDS011;47692;53.714;11.372;2023-05-10T08:11:18;5.82;;;3.40;;
61785;SDS011;47692;53.714;11.372;2023-05-10T08:13:45;5.80;;;3.70;;
61785;SDS011;47692;53.714;11.372;2023-05-10T08:16:11;5.40;;;3.63;;
61785;SDS011;47692;53.714;11.372;2023-05-10T08:18:36;5.30;;;3.85;;
61785;SDS011;47692;53.714;11.372;2023-05-10T08:21:02;6.28;;;3.33;;
61785;SDS011;47692;53.714;11.372;2023-05-10T08:23:28;6.72;;;3.70;;
61785;SDS011;47692;53.714;11.372;2023-05-10T08:25:53;4.75;;;3.30;;
61785;SDS011;47692;53.714;11.372;2023-05-10T08:28:19;7.90;;;3.33;;
61785;SDS011;47692;53.714;11.372;2023-05-10T08:30:44;5.15;;;3.17;;
61785;SDS011;47692;53.714;11.372;2023-05-10T08:33:09;6.03;;;3.45;;
61785;SDS011;47692;53.714;11.372;2023-05-10T08:35:35;4.85;;;3.00;;
61785;SDS011;47692;53.714;11.372;2023-05-10T08:38:00;5.47;;;3.67;;
61785;SDS011;47692;53.714;11.372;2023-05-10T08:40:26;4.72;;;3.40;;
61785;SDS011;47692;53.714;11.372;2023-05-10T08:43:10;6.20;;;3.40;;
61785;SDS011;47692;53.714;11.372;2023-05-10T08:45:46;5.80;;;2.97;;
61785;SDS011;47692;53.714;11.372;2023-05-10T08:48:14;9.23;;;3.30;;
61785;SDS011;47692;53.714;11.372;2023-05-10T08:50:40;4.85;;;3.25;;
61785;SDS011;47692;53.714;11.372;2023-05-10T08:53:11;5.72;;;3.28;;
61785;SDS011;47692;53.714;11.372;2023-05-10T08:55:38;5.20;;;3.58;;
61785;SDS011;47692;53.714;11.372;2023-05-10T08:58:05;8.25;;;3.47;;
61785;SDS011;47692;53.714;11.372;2023-05-10T09:00:31;4.53;;;3.22;;
61785;SDS011;47692;53.714;11.372;2023-05-10T09:03:00;5.70;;;3.13;;
61785;SDS011;47692;53.714;11.372;2023-05-10T09:05:25;5.15;;;3.40;;
61785;SDS011;47692;53.714;11.372;2023-05-10T09:07:51;7.15;;;3.60;;
61785;SDS011;47692;53.714;11.372;2023-05-10T09:10:18;5.22;;;3.17;;
61785;SDS011;47692;53.714;11.372;2023-05-10T09:12:44;6.00;;;3.63;;
61785;SDS011;47692;53.714;11.372;2023-05-10T09:15:10;6.68;;;3.70;;
61785;SDS011;47692;53.714;11.372;2023-05-10T09:17:37;8.90;;;3.50;;
61785;SDS011;47692;53.714;11.372;2023-05-10T09:20:05;4.72;;;3.40;;
61785;SDS011;47692;53.714;11.372;2023-05-10T09:22:31;4.93;;;3.22;;
61785;SDS011;47692;53.714;11.372;2023-05-10T09:25:03;7.97;;;3.80;;
61785;SDS011;47692;53.714;11.372;2023-05-10T09:27:33;6.95;;;3.30;;
61785;SDS011;47692;53.714;11.372;2023-05-10T09:29:59;5.53;;;3.53;;
61785;SDS011;47692;53.714;11.372;2023-05-10T09:32:43;5.45;;;3.40;;
61785;SDS011;47692;53.714;11.372;2023-05-10T09:35:13;7.50;;;3.60;;
61785;SDS011;47692;53.714;11.372;2023-05-10T09:37:47;5.68;;;3.25;;
61785;SDS011;47692;53.714;11.372;2023-05-10T09:40:17;4.47;;;3.47;;
61785;SDS011;47692;53.714;11.372;2023-05-10T09:42:52;5.07;;;3.15;;
61785;SDS011;47692;53.714;11.372;2023-05-10T09:45:26;6.25;;;3.60;;
61785;SDS011;47692;53.714;11.372;2023-05-10T09:47:52;5.90;;;3.50;;
61785;SDS011;47692;53.714;11.372;2023-05-10T09:50:18;4.68;;;3.85;;
61785;SDS011;47692;53.714;11.372;2023-05-10T09:52:52;6.18;;;3.38;;
61785;SDS011;47692;53.714;11.372;2023-05-10T09:55:19;7.10;;;3.95;;
61785;SDS011;47692;53.714;11.372;2023-05-10T09:57:49;5.80;;;3.50;;
61785;SDS011;47692;53.714;11.372;2023-05-10T10:00:23;6.18;;;3.75;;
61785;SDS011;47692;53.714;11.372;2023-05-10T10:02:58;8.20;;;4.07;;
61785;SDS011;47692;53.714;11.372;2023-05-10T10:05:31;6.72;;;4.28;;
61785;SDS011;47692;53.714;11.372;2023-05-10T10:07:58;7.53;;;4.25;;
61785;SDS011;47692;53.714;11.372;2023-05-10T10:10:24;8.10;;;4.30;;
61785;SDS011;47692;53.714;11.372;2023-05-10T10:12:50;7.45;;;4.22;;
61785;SDS011;47692;53.714;11.372;2023-05-10T10:15:15;7.25;;;3.85;;
61785;SDS011;47692;53.714;11.372;2023-05-10T10:17:41;6.30;;;3.97;;
61785;SDS011;47692;53.714;11.372;2023-05-10T10:20:09;5.97;;;3.67;;
61785;SDS011;47692;53.714;11.372;2023-05-10T10:22:36;7.22;;;4.10;;
61785;SDS011;47692;53.714;11.372;2023-05-10T10:25:01;7.38;;;4.00;;
61785;SDS011;47692;53.714;11.372;2023-05-10T10:30:24;8.80;;;4.50;;
61785;SDS011;47692;53.714;11.372;2023-05-10T10:33:13;6.28;;;3.78;;
61785;SDS011;47692;53.714;11.372;2023-05-10T10:36:02;5.18;;;3.80;;
61785;SDS011;47692;53.714;11.372;2023-05-10T10:47:35;6.25;;;3.33;;
61785;SDS011;47692;53.714;11.372;2023-05-10T10:54:51;5.72;;;3.38;;
61785;SDS011;47692;53.714;11.372;2023-05-10T10:57:20;5.13;;;3.55;;
61785;SDS011;47692;53.714;11.372;2023-05-10T10:59:48;8.05;;;4.28;;
61785;SDS011;47692;53.714;11.372;2023-05-10T11:02:33;5.53;;;3.95;;
61785;SDS011;47692;53.714;11.372;2023-05-10T11:04:59;8.60;;;4.43;;
61785;SDS011;47692;53.714;11.372;2023-05-10T11:07:25;9.55;;;3.88;;
61785;SDS011;47692;53.714;11.372;2023-05-10T11:09:51;6.70;;;3.88;;
61785;SDS011;47692;53.714;11.372;2023-05-10T11:12:16;9.02;;;3.92;;
61785;SDS011;47692;53.714;11.372;2023-05-10T11:14:42;6.70;;;4.22;;
61785;SDS011;47692;53.714;11.372;2023-05-10T11:20:06;5.40;;;3.80;;
61785;SDS011;47692;53.714;11.372;2023-05-10T11:22:49;4.97;;;3.70;;
61785;SDS011;47692;53.714;11.372;2023-05-10T11:25:16;9.27;;;3.92;;
61785;SDS011;47692;53.714;11.372;2023-05-10T11:27:41;7.00;;;4.03;;
61785;SDS011;47692;53.714;11.372;2023-05-10T11:30:07;5.70;;;4.00;;
61785;SDS011;47692;53.714;11.372;2023-05-10T11:32:36;6.30;;;4.00;;
61785;SDS011;47692;53.714;11.372;2023-05-10T11:35:08;7.20;;;3.80;;
61785;SDS011;47692;53.714;11.372;2023-05-10T11:37:34;6.65;;;3.67;;
61785;SDS011;47692;53.714;11.372;2023-05-10T11:40:00;6.63;;;4.05;;
61785;SDS011;47692;53.714;11.372;2023-05-10T11:42:25;6.70;;;4.15;;
61785;SDS011;47692;53.714;11.372;2023-05-10T11:44:52;6.45;;;4.05;;
61785;SDS011;47692;53.714;11.372;2023-05-10T11:47:18;6.38;;;3.90;;
61785;SDS011;47692;53.714;11.372;2023-05-10T11:49:44;4.75;;;3.83;;
61785;SDS011;47692;53.714;11.372;2023-05-10T11:52:10;4.78;;;3.53;;
61785;SDS011;47692;53.714;11.372;2023-05-10T11:54:44;8.48;;;4.28;;
61785;SDS011;47692;53.714;11.372;2023-05-10T11:57:15;9.13;;;4.10;;
61785;SDS011;47692;53.714;11.372;2023-05-10T11:59:40;6.20;;;4.03;;
61785;SDS011;47692;53.714;11.372;2023-05-10T12:02:06;5.85;;;4.20;;
61785;SDS011;47692;53.714;11.372;2023-05-10T12:04:31;5.60;;;3.70;;
61785;SDS011;47692;53.714;11.372;2023-05-10T12:06:57;7.18;;;4.20;;
61785;SDS011;47692;53.714;11.372;2023-05-10T12:09:22;6.05;;;4.05;;
61785;SDS011;47692;53.714;11.372;2023-05-10T12:11:48;4.78;;;3.67;;
61785;SDS011;47692;53.714;11.372;2023-05-10T12:14:13;6.97;;;3.95;;
61785;SDS011;47692;53.714;11.372;2023-05-10T12:16:40;8.80;;;4.13;;
61785;SDS011;47692;53.714;11.372;2023-05-10T12:19:08;5.18;;;4.05;;
61785;SDS011;47692;53.714;11.372;2023-05-10T12:21:33;5.75;;;3.97;;
61785;SDS011;47692;53.714;11.372;2023-05-10T12:23:59;5.28;;;4.05;;
61785;SDS011;47692;53.714;11.372;2023-05-10T12:26:27;5.85;;;3.83;;
61785;SDS011;47692;53.714;11.372;2023-05-10T12:29:01;5.68;;;4.07;;
61785;SDS011;47692;53.714;11.372;2023-05-10T12:31:52;6.82;;;4.35;;
61785;SDS011;47692;53.714;11.372;2023-05-10T12:34:25;8.88;;;4.05;;
61785;SDS011;47692;53.714;11.372;2023-05-10T12:36:52;5.25;;;4.22;;
61785;SDS011;47692;53.714;11.372;2023-05-10T12:39:18;5.65;;;4.10;;
61785;SDS011;47692;53.714;11.372;2023-05-10T12:41:43;5.95;;;4.05;;
61785;SDS011;47692;53.714;11.372;2023-05-10T12:44:09;6.45;;;3.55;;
61785;SDS011;47692;53.714;11.372;2023-05-10T12:46:34;5.90;;;4.22;;
61785;SDS011;47692;53.714;11.372;2023-05-10T12:48:59;6.95;;;3.58;;
61785;SDS011;47692;53.714;11.372;2023-05-10T12:51:24;5.50;;;3.60;;
61785;SDS011;47692;53.714;11.372;2023-05-10T12:53:50;6.53;;;3.95;;
61785;SDS011;47692;53.714;11.372;2023-05-10T12:56:15;5.80;;;3.72;;
61785;SDS011;47692;53.714;11.372;2023-05-10T12:58:40;7.82;;;3.78;;
61785;SDS011;47692;53.714;11.372;2023-05-10T13:01:06;7.97;;;4.30;;
61785;SDS011;47692;53.714;11.372;2023-05-10T13:03:31;5.22;;;4.22;;
61785;SDS011;47692;53.714;11.372;2023-05-10T13:05:57;6.93;;;3.92;;
61785;SDS011;47692;53.714;11.372;2023-05-10T13:08:22;5.63;;;3.70;;
61785;SDS011;47692;53.714;11.372;2023-05-10T13:10:48;5.47;;;3.83;;
61785;SDS011;47692;53.714;11.372;2023-05-10T13:13:13;5.22;;;3.30;;
61785;SDS011;47692;53.714;11.372;2023-05-10T13:15:39;8.90;;;4.10;;
61785;SDS011;47692;53.714;11.372;2023-05-10T13:18:04;6.88;;;3.80;;
61785;SDS011;47692;53.714;11.372;2023-05-10T13:20:30;6.25;;;3.55;;
61785;SDS011;47692;53.714;11.372;2023-05-10T13:22:55;6.97;;;3.85;;
61785;SDS011;47692;53.714;11.372;2023-05-10T13:25:20;8.52;;;4.32;;
61785;SDS011;47692;53.714;11.372;2023-05-10T13:27:46;7.07;;;3.85;;
61785;SDS011;47692;53.714;11.372;2023-05-10T13:30:11;6.10;;;3.90;;
61785;SDS011;47692;53.714;11.372;2023-05-10T13:32:37;6.28;;;3.75;;
61785;SDS011;47692;53.714;11.372;2023-05-10T13:35:03;5.03;;;3.85;;
61785;SDS011;47692;53.714;11.372;2023-05-10T13:37:29;6.07;;;3.95;;
61785;SDS011;47692;53.714;11.372;2023-05-10T13:39:55;7.13;;;4.25;;
61785;SDS011;47692;53.714;11.372;2023-05-10T13:42:21;6.22;;;3.75;;
61785;SDS011;47692;53.714;11.372;2023-05-10T13:44:48;5.53;;;3.90;;
61785;SDS011;47692;53.714;11.372;2023-05-10T13:47:13;5.40;;;3.60;;
61785;SDS011;47692;53.714;11.372;2023-05-10T13:49:39;6.13;;;4.20;;
61785;SDS011;47692;53.714;11.372;2023-05-10T13:52:04;5.50;;;4.05;;
61785;SDS011;47692;53.714;11.372;2023-05-10T13:54:32;7.90;;;4.07;;
61785;SDS011;47692;53.714;11.372;2023-05-10T13:56:58;6.93;;;4.20;;
61785;SDS011;47692;53.714;11.372;2023-05-10T13:59:24;4.90;;;3.88;;
61785;SDS011;47692;53.714;11.372;2023-05-10T14:01:49;7.45;;;3.95;;
61785;SDS011;47692;53.714;11.372;2023-05-10T14:04:14;6.65;;;3.90;;
61785;SDS011;47692;53.714;11.372;2023-05-10T14:06:40;4.63;;;3.80;;
61785;SDS011;47692;53.714;11.372;2023-05-10T14:09:05;5.53;;;4.15;;
61785;SDS011;47692;53.714;11.372;2023-05-10T14:11:30;6.25;;;3.83;;
61785;SDS011;47692;53.714;11.372;2023-05-10T14:13:56;5.07;;;4.10;;
61785;SDS011;47692;53.714;11.372;2023-05-10T14:16:22;7.38;;;4.10;;
61785;SDS011;47692;53.714;11.372;2023-05-10T14:18:47;6.63;;;4.45;;
61785;SDS011;47692;53.714;11.372;2023-05-10T14:21:12;6.25;;;3.70;;
61785;SDS011;47692;53.714;11.372;2023-05-10T14:23:38;5.82;;;3.80;;
61785;SDS011;47692;53.714;11.372;2023-05-10T14:26:04;7.28;;;4.50;;
61785;SDS011;47692;53.714;11.372;2023-05-10T14:28:29;5.65;;;3.88;;
61785;SDS011;47692;53.714;11.372;2023-05-10T14:30:55;6.65;;;4.20;;
61785;SDS011;47692;53.714;11.372;2023-05-10T14:33:20;7.95;;;4.43;;
61785;SDS011;47692;53.714;11.372;2023-05-10T14:35:46;7.88;;;4.18;;
61785;SDS011;47692;53.714;11.372;2023-05-10T14:38:12;6.43;;;3.97;;
61785;SDS011;47692;53.714;11.372;2023-05-10T14:40:38;6.82;;;4.90;;
61785;SDS011;47692;53.714;11.372;2023-05-10T14:43:03;8.32;;;5.28;;
61785;SDS011;47692;53.714;11.372;2023-05-10T14:45:28;9.93;;;5.13;;
61785;SDS011;47692;53.714;11.372;2023-05-10T14:47:54;7.47;;;5.80;;
61785;SDS011;47692;53.714;11.372;2023-05-10T14:50:19;9.45;;;5.97;;
61785;SDS011;47692;53.714;11.372;2023-05-10T14:52:44;9.63;;;5.18;;
61785;SDS011;47692;53.714;11.372;2023-05-10T14:55:10;9.63;;;5.97;;
61785;SDS011;47692;53.714;11.372;2023-05-10T14:57:35;8.02;;;5.78;;
61785;SDS011;47692;53.714;11.372;2023-05-10T15:00:01;8.90;;;5.97;;
61785;SDS011;47692;53.714;11.372;2023-05-10T15:02:27;8.57;;;6.10;;
61785;SDS011;47692;53.714;11.372;2023-05-10T15:04:52;11.05;;;5.72;;
61785;SDS011;47692;53.714;11.372;2023-05-10T15:07:18;7.60;;;5.43;;
61785;SDS011;47692;53.714;11.372;2023-05-10T15:09:46;8.90;;;6.25;;